Time;durP1;ratioP1;P1;durP2;ratioP2;P2;SDS_P1;SDS_P2;PMS_P1;PMS_P2;Temp;Humidity;BMP_temperature;BMP_pressure;BME280_temperature;BME280_humidity;BME280_pressure;Samples;Min_cycle;Max_cycle;Signal;HPM_P1;HPM_P2
2023/01/09 00:01:29;;;;;;;6.57;2.42;;;6.30;99.90;;;;;;6219653;23;20208;-78
2023/01/09 00:11:19;;;;;;;4.10;2.13;;;5.40;99.90;;;;;;6115796;23;20028;-77
2023/01/09 00:13:48;;;;;;;4.70;2.75;;;6.80;99.90;;;;;;6219122;23;20013;-77
2023/01/09 00:16:14;;;;;;;6.18;3.22;;;6.30;99.90;;;;;;6194432;23;20071;-77
2023/01/09 00:18:44;;;;;;;5.75;2.22;;;5.20;99.90;;;;;;6194727;23;20211;-77
2023/01/09 00:21:14;;;;;;;5.43;2.75;;;6.40;99.90;;;;;;6219901;23;20028;-77
2023/01/09 00:24:44;;;;;;;5.85;2.53;;;5.30;99.90;;;;;;6194015;23;20072;-79
2023/01/09 00:27:10;;;;;;;5.93;2.60;;;5.80;99.90;;;;;;6111589;23;20236;-77
2023/01/09 00:29:40;;;;;;;3.88;2.55;;;6.50;99.90;;;;;;6057943;23;20316;-77
2023/01/09 00:32:09;;;;;;;4.05;2.40;;;5.00;99.90;;;;;;6163355;23;20012;-77
2023/01/09 00:35:22;;;;;;;4.00;2.30;;;6.50;99.90;;;;;;6218434;23;20075;-78
2023/01/09 00:37:57;;;;;;;4.78;2.00;;;6.60;99.90;;;;;;6128271;23;20070;-78
2023/01/09 00:40:23;;;;;;;4.72;2.30;;;8.20;99.90;;;;;;6080530;23;20013;-76
2023/01/09 00:42:53;;;;;;;4.18;1.85;;;7.10;99.90;;;;;;6136765;23;20013;-78
2023/01/09 00:45:27;;;;;;;1.95;1.00;;;6.70;99.90;;;;;;6218689;23;20069;-78
2023/01/09 00:47:57;;;;;;;2.88;1.20;;;6.80;99.90;;;;;;6195369;23;20076;-78
2023/01/09 00:50:28;;;;;;;2.20;1.23;;;6.50;99.90;;;;;;6219222;23;20020;-77
2023/01/09 00:52:55;;;;;;;4.80;1.30;;;6.60;99.90;;;;;;6194343;23;20008;-79
2023/01/09 00:55:21;;;;;;;1.50;1.00;;;6.70;99.90;;;;;;6144918;23;20071;-78
2023/01/09 00:57:48;;;;;;;3.17;1.08;;;6.60;99.90;;;;;;6220391;23;20391;-77
2023/01/09 01:00:14;;;;;;;3.30;1.00;;;6.60;99.90;;;;;;6169972;23;20008;-78
2023/01/09 01:02:39;;;;;;;1.05;0.75;;;6.60;99.90;;;;;;6195019;23;20402;-78
2023/01/09 01:07:50;;;;;;;1.45;1.10;;;6.50;99.90;;;;;;6220037;23;20020;-77
2023/01/09 01:10:24;;;;;;;0.95;0.70;;;6.50;99.90;;;;;;6220045;23;20035;-79
2023/01/09 01:12:50;;;;;;;0.70;0.70;;;6.40;99.90;;;;;;6219472;23;20067;-78
2023/01/09 01:15:17;;;;;;;0.90;0.80;;;6.40;99.90;;;;;;6193184;23;20083;-77
2023/01/09 01:17:43;;;;;;;0.93;0.50;;;6.50;99.90;;;;;;6169547;23;20434;-78
2023/01/09 01:20:15;;;;;;;0.77;0.60;;;6.50;99.90;;;;;;6194027;23;20023;-78
2023/01/09 01:23:10;;;;;;;1.17;0.50;;;6.00;99.90;;;;;;6195252;23;20013;-78
2023/01/09 01:26:14;;;;;;;1.70;0.60;;;5.60;99.90;;;;;;6169474;23;20084;-78
2023/01/09 01:28:40;;;;;;;2.42;0.50;;;8.30;99.90;;;;;;6082272;23;20760;-78
2023/01/09 01:31:06;;;;;;;2.63;0.60;;;6.80;99.90;;;;;;6193833;23;20020;-78
2023/01/09 01:34:27;;;;;;;1.05;0.68;;;6.20;99.90;;;;;;6220873;23;20099;-79
2023/01/09 01:40:39;;;;;;;1.00;0.80;;;5.40;99.90;;;;;;6176533;23;20024;-76
2023/01/09 01:46:44;;;;;;;1.77;0.70;;;6.40;99.90;;;;;;6223814;23;20314;-78
2023/01/09 01:49:21;;;;;;;2.00;0.90;;;6.50;99.90;;;;;;6198389;23;20026;-78
2023/01/09 01:52:37;;;;;;;2.03;1.13;;;6.50;99.90;;;;;;6196964;23;20050;-78
2023/01/09 01:55:37;;;;;;;1.80;1.13;;;6.50;99.90;;;;;;6074574;23;20283;-76
2023/01/09 01:58:38;;;;;;;2.08;1.48;;;4.40;99.90;;;;;;6196133;23;20012;-77
2023/01/09 02:01:45;;;;;;;;;;;;;;;;;;;;;
2023/01/09 02:12:26;;;;;;;4.60;2.00;;;6.70;99.90;;;;;;6071636;23;20082;-78
2023/01/09 02:19:53;;;;;;;3.60;2.33;;;7.10;99.90;;;;;;6047765;23;20079;-76
2023/01/09 02:30:43;;;;;;;3.80;2.17;;;7.20;99.90;;;;;;5930941;24;20221;-77
2023/01/09 02:42:03;;;;;;;;;;;;;;;;;;;;;
2023/01/09 03:18:16;;;;;;;6.30;2.53;;;6.30;99.90;;;;;;6161824;23;20261;-77
2023/01/09 03:50:47;;;;;;;;;;;;;;;;;;;;;
2023/01/09 04:07:38;;;;;;;8.95;3.67;;;7.20;99.90;;;;;;5883083;24;20022;-79
2023/01/09 04:10:30;;;;;;;6.85;3.40;;;6.00;99.90;;;;;;5962589;23;20033;-79
2023/01/09 04:25:27;;;;;;;8.57;3.80;;;6.10;99.90;;;;;;6137392;23;20271;-80
2023/01/09 04:29:49;;;;;;;;;;;;;;;;;;;;;
2023/01/09 04:44:12;;;;;;;;;;;;;;;;;;;;;
2023/01/09 05:01:31;;;;;;;9.30;4.95;;;4.90;99.90;;;;;;6072391;23;20046;-78
2023/01/09 05:04:30;;;;;;;9.70;4.70;;;5.70;99.90;;;;;;6048557;23;20050;-78
2023/01/09 05:07:27;;;;;;;9.65;4.70;;;4.30;99.90;;;;;;6072647;23;20062;-78
2023/01/09 05:10:17;;;;;;;8.85;4.65;;;5.60;99.90;;;;;;6219917;23;20014;-78
2023/01/09 05:12:53;;;;;;;6.05;4.50;;;5.60;99.90;;;;;;6224678;23;20023;-78
2023/01/09 05:16:11;;;;;;;;;;;;;;;;;;;;;
2023/01/09 05:19:59;;;;;;;11.02;5.50;;;5.70;99.90;;;;;;6131250;23;20049;-80
2023/01/09 05:23:34;;;;;;;12.05;5.60;;;5.60;99.90;;;;;;6068829;23;20025;-79
2023/01/09 05:26:49;;;;;;;;;;;;;;;;;;;;;
2023/01/09 05:29:39;;;;;;;14.23;6.68;;;5.30;99.90;;;;;;6126029;23;19963;-80
2023/01/09 05:36:24;;;;;;;13.30;7.47;;;6.00;99.90;;;;;;6103767;23;20070;-80
2023/01/09 05:38:50;;;;;;;10.98;7.32;;;6.00;99.90;;;;;;6081162;23;20249;-79
2023/01/09 05:41:21;;;;;;;13.70;8.18;;;4.50;99.90;;;;;;6133355;23;20035;-79
2023/01/09 05:47:44;;;;;;;13.55;9.18;;;5.30;99.90;;;;;;6121109;23;20598;-78
2023/01/09 05:58:32;;;;;;;19.95;10.95;;;5.10;99.90;;;;;;6129866;23;20014;-78
2023/01/09 06:01:34;;;;;;;18.88;11.85;;;6.20;99.90;;;;;;6130831;23;20006;-79
2023/01/09 06:24:52;;;;;;;25.80;13.60;;;5.90;99.90;;;;;;5991218;23;20035;-79
2023/01/09 06:27:18;;;;;;;22.95;14.43;;;6.00;99.90;;;;;;6077573;22;20017;-79
2023/01/09 06:29:46;;;;;;;23.23;13.88;;;6.10;99.90;;;;;;6256290;22;20015;-78
2023/01/09 06:32:21;;;;;;;19.67;12.77;;;6.70;99.90;;;;;;6256008;22;20042;-78
2023/01/09 06:34:46;;;;;;;23.02;14.68;;;6.10;99.90;;;;;;6255668;22;20482;-79
2023/01/09 06:37:20;;;;;;;25.77;13.70;;;6.10;99.90;;;;;;6253624;22;20015;-79
2023/01/09 06:39:54;;;;;;;26.17;13.05;;;6.10;99.90;;;;;;6280992;22;20027;-79
2023/01/09 06:42:23;;;;;;;23.23;14.07;;;6.20;99.90;;;;;;6232258;22;20008;-79
2023/01/09 06:44:49;;;;;;;21.88;13.35;;;6.20;99.90;;;;;;6255411;22;20298;-81
2023/01/09 06:47:55;;;;;;;19.20;11.73;;;6.40;99.90;;;;;;6280338;22;20015;-78
2023/01/09 06:50:44;;;;;;;20.60;13.00;;;6.30;99.90;;;;;;6282428;22;20019;-78
2023/01/09 06:57:15;;;;;;;;;;;;;;;;;;;;;
2023/01/09 07:00:52;;;;;;;;;;;;;;;;;;;;;
2023/01/09 07:04:36;;;;;;;24.00;13.07;;;5.70;99.90;;;;;;6181225;23;20016;-78
2023/01/09 07:07:35;;;;;;;21.90;13.27;;;7.00;99.90;;;;;;6157213;23;20010;-79
2023/01/09 07:10:17;;;;;;;21.90;13.15;;;6.90;99.90;;;;;;6179968;23;20059;-78
2023/01/09 07:13:31;;;;;;;24.42;14.20;;;6.40;99.90;;;;;;6198473;23;20012;-79
2023/01/09 07:16:51;;;;;;;21.40;12.25;;;6.00;99.90;;;;;;6178398;23;20239;-78
2023/01/09 07:27:25;;;;;;;20.95;12.13;;;7.20;99.90;;;;;;6127482;23;20044;-79
2023/01/09 07:30:10;;;;;;;22.30;11.07;;;6.10;99.90;;;;;;6024669;23;20178;-78
2023/01/09 07:36:19;;;;;;;19.92;11.45;;;8.30;99.90;;;;;;6093753;23;20065;-79
2023/01/09 07:39:03;;;;;;;18.75;10.93;;;5.80;99.90;;;;;;6241940;22;20110;-79
2023/01/09 07:42:12;;;;;;;16.27;10.82;;;5.20;99.90;;;;;;6279614;22;20075;-78
2023/01/09 07:44:56;;;;;;;16.73;10.52;;;4.80;99.90;;;;;;6281906;22;20014;-80
2023/01/09 07:47:25;;;;;;;15.30;9.88;;;6.10;99.90;;;;;;6229751;22;20422;-79
2023/01/09 07:49:55;;;;;;;14.85;9.55;;;6.20;99.90;;;;;;6280902;22;20012;-79
2023/01/09 07:52:56;;;;;;;14.85;9.63;;;6.00;99.90;;;;;;6229281;22;20090;-79
2023/01/09 07:59:26;;;;;;;14.40;9.00;;;7.40;99.90;;;;;;6188468;23;20016;-76
2023/01/09 08:02:50;;;;;;;13.68;9.85;;;4.90;99.90;;;;;;6142836;23;20044;-76
2023/01/09 08:06:02;;;;;;;12.77;9.10;;;6.00;99.90;;;;;;6104437;23;20010;-77
2023/01/09 08:08:48;;;;;;;12.70;7.38;;;7.40;99.90;;;;;;6154039;22;20051;-75
2023/01/09 08:11:35;;;;;;;18.70;6.68;;;5.80;99.90;;;;;;6256742;22;20012;-77
2023/01/09 08:29:27;;;;;;;;;;;;;;;;;;;;;
2023/01/09 08:51:11;;;;;;;9.77;5.85;;;6.80;99.90;;;;;;6043614;23;20048;-78
2023/01/09 08:54:40;;;;;;;11.32;5.63;;;7.20;99.90;;;;;;6140491;23;20023;-77
2023/01/09 09:07:49;;;;;;;11.02;5.88;;;6.30;99.90;;;;;;6025673;23;20064;-74
2023/01/09 09:10:18;;;;;;;11.00;4.93;;;6.20;99.90;;;;;;6069310;23;20009;-77
2023/01/09 09:12:47;;;;;;;6.28;4.28;;;6.00;99.90;;;;;;6218610;23;20036;-77
2023/01/09 09:15:18;;;;;;;6.05;4.82;;;6.30;99.90;;;;;;6224769;23;20008;-78
2023/01/09 09:17:47;;;;;;;11.38;4.93;;;6.20;99.90;;;;;;6225190;23;20063;-76
2023/01/09 09:20:13;;;;;;;11.38;5.03;;;6.30;99.90;;;;;;6224997;23;20012;-76
2023/01/09 09:22:39;;;;;;;7.03;4.90;;;6.20;99.90;;;;;;6198946;23;20016;-76
2023/01/09 09:25:05;;;;;;;9.32;4.97;;;6.50;99.90;;;;;;6198281;23;20020;-77
2023/01/09 09:27:35;;;;;;;8.00;4.63;;;6.20;99.90;;;;;;6199137;23;20008;-76
2023/01/09 09:30:01;;;;;;;10.02;5.05;;;6.50;99.90;;;;;;6175141;23;20035;-76
2023/01/09 09:32:32;;;;;;;9.27;3.67;;;6.50;99.90;;;;;;6174396;23;20019;-75
2023/01/09 09:34:58;;;;;;;10.63;4.45;;;6.50;99.90;;;;;;6198006;23;20055;-76
2023/01/09 09:37:23;;;;;;;7.43;3.92;;;6.40;99.90;;;;;;6173873;22;20174;-77
2023/01/09 09:39:49;;;;;;;7.30;3.92;;;6.30;99.90;;;;;;6225426;22;20043;-76
2023/01/09 09:45:47;;;;;;;5.82;3.53;;;6.60;99.90;;;;;;6277637;22;20027;-75
2023/01/09 09:59:31;;;;;;;8.98;4.28;;;6.00;99.90;;;;;;6039945;23;20080;-75
2023/01/09 10:02:22;;;;;;;6.75;4.00;;;6.40;99.90;;;;;;6120021;23;20208;-73
2023/01/09 10:04:55;;;;;;;5.63;3.88;;;7.00;99.90;;;;;;6138099;23;20173;-74
2023/01/09 10:07:27;;;;;;;6.93;4.00;;;6.50;99.90;;;;;;6267702;22;20485;-74
2023/01/09 10:10:17;;;;;;;8.65;4.85;;;6.60;99.90;;;;;;6254549;22;20613;-73
2023/01/09 10:12:52;;;;;;;7.13;3.67;;;6.60;99.90;;;;;;6279402;22;20074;-74
2023/01/09 10:15:20;;;;;;;;;;;6.80;99.90;;;;;;6251952;22;20314;-75
2023/01/09 10:17:53;;;;;;;8.57;4.03;;;6.60;99.90;;;;;;6277866;22;19907;-74
2023/01/09 10:20:47;;;;;;;9.07;3.88;;;6.80;99.90;;;;;;6278224;22;20063;-74
2023/01/09 10:23:58;;;;;;;5.63;3.83;;;6.70;99.90;;;;;;6252224;22;20071;-75
2023/01/09 10:26:51;;;;;;;6.18;3.22;;;6.70;99.90;;;;;;6157330;22;20015;-75
2023/01/09 10:29:47;;;;;;;7.50;4.10;;;6.70;99.90;;;;;;6222093;22;20463;-75
2023/01/09 10:32:28;;;;;;;8.23;4.03;;;6.90;99.90;;;;;;6278596;22;20064;-75
2023/01/09 10:35:03;;;;;;;9.32;4.00;;;6.90;99.90;;;;;;6277918;22;20016;-76
2023/01/09 10:37:42;;;;;;;8.68;3.67;;;6.90;99.90;;;;;;6252646;22;20061;-76
2023/01/09 10:40:38;;;;;;;7.20;3.60;;;7.10;99.90;;;;;;6252676;22;20019;-76
2023/01/09 10:43:11;;;;;;;6.53;3.50;;;7.00;99.90;;;;;;6277086;22;20058;-76
2023/01/09 10:45:49;;;;;;;8.48;3.92;;;6.00;99.90;;;;;;6250299;22;20008;-75
2023/01/09 10:48:32;;;;;;;5.13;3.60;;;7.20;99.90;;;;;;6251015;22;20075;-75
2023/01/09 10:50:58;;;;;;;5.25;3.75;;;7.10;99.90;;;;;;6278546;22;20042;-75
2023/01/09 10:53:38;;;;;;;8.43;3.75;;;7.10;99.90;;;;;;6252087;22;20033;-75
2023/01/09 10:56:29;;;;;;;7.30;3.60;;;7.20;99.90;;;;;;6252270;22;20059;-74
2023/01/09 10:58:55;;;;;;;5.70;3.33;;;7.20;99.90;;;;;;6252879;22;20025;-75
2023/01/09 11:01:32;;;;;;;6.30;3.67;;;7.30;99.90;;;;;;6252635;22;20334;-75
2023/01/09 11:04:00;;;;;;;5.43;3.33;;;7.20;99.90;;;;;;6253762;22;20035;-75
2023/01/09 11:06:50;;;;;;;5.00;2.97;;;7.40;99.90;;;;;;6228567;22;20022;-74
2023/01/09 11:09:23;;;;;;;5.60;2.90;;;7.30;99.90;;;;;;6278940;22;20022;-75
2023/01/09 11:16:25;;;;;;;5.00;3.05;;;6.40;99.90;;;;;;6182792;23;20021;-74
2023/01/09 11:26:44;;;;;;;;;;;;;;;;;;;;;
2023/01/09 11:29:26;;;;;;;6.63;2.90;;;7.50;99.90;;;;;;5925551;24;20013;-73
2023/01/09 11:35:37;;;;;;;6.38;3.13;;;5.70;99.90;;;;;;6015979;23;20015;-73
2023/01/09 11:38:15;;;;;;;6.35;3.20;;;7.40;99.90;;;;;;6051420;23;20027;-74
2023/01/09 11:41:02;;;;;;;6.15;3.70;;;7.40;99.90;;;;;;6135795;23;20023;-73
2023/01/09 11:43:43;;;;;;;9.13;4.40;;;7.60;99.90;;;;;;6209644;22;20450;-73
2023/01/09 11:46:28;;;;;;;9.40;4.47;;;7.30;99.90;;;;;;6255667;22;20054;-73
2023/01/09 11:48:56;;;;;;;7.10;4.43;;;7.40;99.90;;;;;;6256632;22;20014;-73
2023/01/09 11:51:30;;;;;;;7.28;4.05;;;7.50;99.90;;;;;;6254200;22;20012;-73
2023/01/09 11:54:11;;;;;;;7.60;4.28;;;7.40;99.90;;;;;;6255885;22;20012;-74
2023/01/09 11:56:37;;;;;;;6.20;3.45;;;7.30;99.90;;;;;;6229998;22;20012;-73
2023/01/09 11:59:12;;;;;;;8.32;3.80;;;7.40;99.90;;;;;;6255934;22;20198;-73
2023/01/09 12:01:46;;;;;;;5.93;3.70;;;7.30;99.90;;;;;;6254495;22;20286;-75
2023/01/09 12:04:27;;;;;;;7.10;4.18;;;7.50;99.90;;;;;;6254855;22;20043;-74
2023/01/09 12:07:18;;;;;;;8.20;4.25;;;7.40;99.90;;;;;;6254624;22;20016;-74
2023/01/09 12:10:10;;;;;;;9.13;4.40;;;7.30;99.90;;;;;;6254438;22;20089;-74
2023/01/09 12:12:47;;;;;;;7.88;4.05;;;7.30;99.90;;;;;;6254876;22;20020;-75
2023/01/09 12:15:12;;;;;;;7.22;3.80;;;7.50;99.90;;;;;;6230285;22;20211;-75
2023/01/09 12:17:50;;;;;;;8.20;3.75;;;7.50;99.90;;;;;;6226402;22;20079;-75
2023/01/09 12:20:25;;;;;;;9.38;4.43;;;7.30;99.90;;;;;;6255678;22;20011;-76
2023/01/09 12:23:32;;;;;;;10.57;4.82;;;7.50;99.90;;;;;;6252059;22;20007;-76
2023/01/09 12:26:23;;;;;;;9.38;5.97;;;7.30;99.90;;;;;;6254395;22;20015;-75
2023/01/09 12:29:20;;;;;;;8.73;5.80;;;7.30;99.90;;;;;;6228490;22;20279;-75
2023/01/09 12:31:56;;;;;;;6.55;4.82;;;7.30;99.90;;;;;;6253131;22;20007;-74
2023/01/09 12:35:10;;;;;;;10.85;4.72;;;7.30;99.90;;;;;;6255215;22;20075;-73
2023/01/09 12:37:45;;;;;;;7.57;4.35;;;7.40;99.90;;;;;;6244304;22;20053;-74
2023/01/09 12:40:17;;;;;;;8.38;4.20;;;7.30;99.90;;;;;;6228623;22;20020;-75
2023/01/09 12:42:57;;;;;;;9.27;4.40;;;7.40;99.90;;;;;;6229796;22;20015;-75
2023/01/09 12:45:37;;;;;;;10.30;4.78;;;7.40;99.90;;;;;;6254050;22;20067;-74
2023/01/09 12:48:29;;;;;;;8.82;4.60;;;7.60;99.90;;;;;;6253807;22;20016;-75
2023/01/09 12:51:16;;;;;;;8.30;4.68;;;7.50;99.90;;;;;;6253763;22;20027;-74
2023/01/09 12:54:08;;;;;;;7.50;4.68;;;7.40;99.90;;;;;;6228464;22;20019;-75
2023/01/09 12:57:08;;;;;;;9.10;4.80;;;7.70;99.90;;;;;;6228714;22;20099;-74
2023/01/09 12:59:49;;;;;;;9.02;4.85;;;7.70;99.90;;;;;;6233370;22;20241;-75
2023/01/09 13:02:41;;;;;;;9.35;5.28;;;7.50;99.90;;;;;;6228709;22;20014;-76
2023/01/09 13:05:20;;;;;;;7.90;5.13;;;7.50;99.90;;;;;;6254494;22;20019;-76
2023/01/09 13:07:53;;;;;;;8.85;5.00;;;7.50;99.90;;;;;;6254269;22;20015;-75
2023/01/09 13:10:22;;;;;;;6.10;4.45;;;7.70;99.90;;;;;;6254883;22;20016;-74
2023/01/09 13:12:49;;;;;;;9.88;5.60;;;7.50;99.90;;;;;;6228897;22;20271;-74
2023/01/09 13:15:29;;;;;;;8.32;5.63;;;7.70;99.90;;;;;;6255398;22;20095;-74
2023/01/09 13:18:18;;;;;;;5.90;5.03;;;7.50;99.90;;;;;;6229193;22;20069;-74
2023/01/09 13:20:45;;;;;;;11.98;6.80;;;7.50;99.90;;;;;;6254477;22;20011;-75
2023/01/09 13:23:34;;;;;;;9.98;6.90;;;7.60;99.90;;;;;;6254584;22;20008;-75
2023/01/09 13:26:13;;;;;;;12.43;6.68;;;7.50;99.90;;;;;;6169372;22;20007;-75
2023/01/09 13:28:45;;;;;;;11.32;6.28;;;7.60;99.90;;;;;;6253413;22;20058;-76
2023/01/09 13:31:34;;;;;;;9.88;6.28;;;7.70;99.90;;;;;;6230394;22;20324;-75
2023/01/09 13:34:01;;;;;;;8.15;6.00;;;7.70;99.90;;;;;;6229601;22;20011;-74
2023/01/09 13:36:36;;;;;;;11.18;7.32;;;7.60;99.90;;;;;;6254596;22;20011;-74
2023/01/09 13:39:03;;;;;;;11.27;6.90;;;7.70;99.90;;;;;;6254227;22;20015;-75
2023/01/09 13:44:20;;;;;;;9.98;6.65;;;7.70;99.90;;;;;;6252869;22;20050;-75
2023/01/09 13:46:52;;;;;;;10.93;7.03;;;7.50;99.90;;;;;;6252502;22;20038;-75
2023/01/09 13:49:40;;;;;;;10.05;6.60;;;7.60;99.90;;;;;;6253926;22;20007;-75
2023/01/09 13:52:24;;;;;;;10.10;7.22;;;7.60;99.90;;;;;;6254423;22;20309;-73
2023/01/09 13:54:59;;;;;;;10.60;7.70;;;7.50;99.90;;;;;;6252760;22;20028;-73
2023/01/09 13:57:34;;;;;;;12.52;7.75;;;7.70;99.90;;;;;;6253859;22;20057;-74
2023/01/09 14:00:19;;;;;;;14.05;8.43;;;7.50;99.90;;;;;;6253801;22;20016;-74
2023/01/09 14:02:45;;;;;;;11.68;7.45;;;7.80;99.90;;;;;;6254669;22;20008;-75
2023/01/09 14:05:15;;;;;;;12.60;7.20;;;8.00;99.90;;;;;;6226096;22;20046;-76
2023/01/09 14:08:01;;;;;;;10.52;7.20;;;8.10;99.90;;;;;;6253693;22;20016;-75
2023/01/09 14:10:45;;;;;;;10.82;7.15;;;7.90;99.90;;;;;;6254365;22;20012;-74
2023/01/09 14:13:21;;;;;;;13.63;7.60;;;8.10;99.90;;;;;;6229964;22;20039;-74
2023/01/09 14:15:49;;;;;;;13.80;8.20;;;8.20;99.90;;;;;;6251758;22;20206;-74
2023/01/09 14:18:24;;;;;;;12.63;8.80;;;8.10;99.90;;;;;;6229221;22;20210;-75
2023/01/09 14:20:55;;;;;;;13.45;7.55;;;8.00;99.90;;;;;;6227810;22;20019;-74
2023/01/09 14:23:23;;;;;;;11.88;7.80;;;7.90;99.90;;;;;;6226379;22;20015;-76
2023/01/09 14:25:51;;;;;;;19.40;8.18;;;8.00;99.90;;;;;;6227083;22;20258;-75
2023/01/09 14:28:22;;;;;;;14.63;7.43;;;8.00;99.90;;;;;;6228586;22;20529;-75
2023/01/09 14:30:51;;;;;;;11.68;7.43;;;7.80;99.90;;;;;;6252979;22;20026;-75
2023/01/09 14:33:20;;;;;;;13.13;7.28;;;7.70;99.90;;;;;;6253845;22;20014;-75
2023/01/09 14:36:23;;;;;;;12.55;8.05;;;7.80;99.90;;;;;;6251828;22;20011;-74
2023/01/09 14:38:52;;;;;;;11.95;7.70;;;7.70;99.90;;;;;;6253432;22;20021;-74
2023/01/09 14:44:45;;;;;;;16.85;8.90;;;7.50;99.90;;;;;;6254131;22;20026;-75
2023/01/09 14:47:44;;;;;;;16.13;8.70;;;7.60;99.90;;;;;;6253414;22;20019;-76
2023/01/09 14:50:35;;;;;;;16.75;8.50;;;7.40;99.90;;;;;;6253112;22;20031;-77
2023/01/09 14:53:36;;;;;;;16.63;8.88;;;8.70;99.90;;;;;;6257829;22;20014;-74
2023/01/09 14:56:07;;;;;;;14.55;7.68;;;7.40;99.90;;;;;;6252565;22;20175;-74
2023/01/09 14:58:51;;;;;;;9.98;7.53;;;8.10;99.90;;;;;;6226001;22;20071;-74
2023/01/09 15:01:24;;;;;;;19.37;13.03;;;6.40;99.90;;;;;;6203781;22;20018;-74
2023/01/09 15:07:03;;;;;;;21.95;12.80;;;6.50;99.90;;;;;;6278628;22;20048;-76
2023/01/09 15:09:42;;;;;;;18.17;11.02;;;7.70;99.90;;;;;;6227957;22;20011;-76
2023/01/09 15:15:52;;;;;;;13.95;8.95;;;6.80;99.90;;;;;;6278536;22;20022;-77
2023/01/09 15:25:57;;;;;;;16.05;7.60;;;7.00;99.90;;;;;;6122487;23;20018;-76
2023/01/09 15:29:47;;;;;;;15.02;7.05;;;5.80;99.90;;;;;;6076937;23;20029;-76
2023/01/09 15:32:31;;;;;;;8.98;6.13;;;7.50;99.90;;;;;;6065004;23;20021;-76
2023/01/09 15:48:17;;;;;;;9.43;5.47;;;7.40;99.90;;;;;;5983699;24;20024;-77
2023/01/09 15:54:44;;;;;;;13.90;5.43;;;7.30;99.90;;;;;;6081110;23;20021;-77
2023/01/09 15:57:34;;;;;;;12.23;4.80;;;7.20;99.90;;;;;;6078223;23;20045;-76
2023/01/09 16:01:15;;;;;;;16.80;5.75;;;7.50;99.90;;;;;;6102125;23;20101;-75
2023/01/09 16:07:19;;;;;;;10.43;5.15;;;8.40;99.90;;;;;;6046188;23;20315;-75
2023/01/09 16:10:11;;;;;;;16.85;6.85;;;7.60;99.90;;;;;;6101638;23;20022;-75
2023/01/09 16:12:42;;;;;;;16.00;7.15;;;8.60;99.90;;;;;;6187946;23;20042;-75
2023/01/09 16:15:19;;;;;;;16.25;7.15;;;7.60;99.90;;;;;;6219542;23;20038;-75
2023/01/09 16:21:58;;;;;;;14.52;5.20;;;8.70;99.90;;;;;;6111479;23;20265;-75
2023/01/09 16:25:08;;;;;;;11.18;4.07;;;7.50;99.90;;;;;;6105860;23;20024;-76
2023/01/09 16:28:41;;;;;;;15.35;4.95;;;7.40;99.90;;;;;;6120914;23;20264;-76
2023/01/09 16:35:24;;;;;;;;;;;;;;;;;;;;;
2023/01/09 16:48:36;;;;;;;13.25;5.85;;;8.40;99.90;;;;;;6099347;23;20108;-76
2023/01/09 16:51:44;;;;;;;10.73;4.85;;;5.90;99.90;;;;;;6066223;23;20596;-76
2023/01/09 16:54:46;;;;;;;;;;;;;;;;;;;;;
2023/01/09 17:01:36;;;;;;;12.88;3.10;;;6.30;99.90;;;;;;5958431;24;20236;-75
2023/01/09 17:04:50;;;;;;;8.75;2.83;;;6.60;99.90;;;;;;5960318;23;20027;-75
2023/01/09 17:07:36;;;;;;;10.98;3.00;;;5.90;99.90;;;;;;6044716;23;20027;-76
2023/01/09 17:10:18;;;;;;;8.82;3.03;;;6.60;99.90;;;;;;6045297;23;20058;-76
2023/01/09 17:12:43;;;;;;;9.68;3.95;;;6.80;99.90;;;;;;6046175;23;20091;-73
2023/01/09 17:15:12;;;;;;;8.57;3.88;;;6.60;99.90;;;;;;6030409;23;20022;-76
2023/01/09 17:17:40;;;;;;;16.48;3.67;;;6.50;99.90;;;;;;6075431;23;20097;-76
2023/01/09 17:20:16;;;;;;;10.60;3.60;;;6.80;99.90;;;;;;6103125;23;20014;-76
2023/01/09 17:22:42;;;;;;;14.93;4.20;;;7.20;99.90;;;;;;6125508;23;20240;-77
2023/01/09 17:30:44;;;;;;;11.00;4.43;;;6.60;99.90;;;;;;6173787;23;20188;-76
2023/01/09 17:33:17;;;;;;;11.60;4.03;;;6.40;99.90;;;;;;6168399;23;20020;-77
2023/01/09 17:35:43;;;;;;;9.05;3.40;;;6.40;99.90;;;;;;6169216;23;20548;-76
2023/01/09 17:38:13;;;;;;;14.73;4.75;;;6.20;99.90;;;;;;6169120;23;20020;-75
2023/01/09 17:40:39;;;;;;;14.18;3.58;;;6.40;99.90;;;;;;6168176;23;20013;-76
2023/01/09 17:43:04;;;;;;;16.15;4.47;;;6.40;99.90;;;;;;6191773;23;20129;-75
2023/01/09 17:45:30;;;;;;;17.17;3.83;;;6.20;99.90;;;;;;6224157;23;20228;-75
2023/01/09 17:47:56;;;;;;;12.75;3.30;;;6.20;99.90;;;;;;6222018;23;20050;-76
2023/01/09 17:50:32;;;;;;;14.27;3.88;;;6.50;99.90;;;;;;6198260;23;20016;-77
2023/01/09 17:52:58;;;;;;;16.00;5.93;;;6.00;99.90;;;;;;6224939;23;20020;-77
2023/01/09 17:55:27;;;;;;;10.75;4.57;;;6.20;99.90;;;;;;6246494;23;20066;-77
2023/01/09 17:57:52;;;;;;;15.60;5.22;;;6.50;99.90;;;;;;6195621;23;20020;-77
2023/01/09 18:00:36;;;;;;;14.85;4.60;;;6.40;99.90;;;;;;6196758;23;20008;-76
2023/01/09 18:03:06;;;;;;;14.63;5.03;;;6.20;99.90;;;;;;6248617;23;20067;-76
2023/01/09 18:05:33;;;;;;;12.18;4.15;;;6.30;99.90;;;;;;6224623;23;20039;-78
2023/01/09 18:07:59;;;;;;;18.95;6.40;;;6.30;99.90;;;;;;6198492;23;20067;-77
2023/01/09 18:10:28;;;;;;;20.83;5.35;;;6.50;99.90;;;;;;6223908;23;20020;-77
2023/01/09 18:12:55;;;;;;;15.45;4.82;;;6.60;99.90;;;;;;6223787;23;20242;-76
2023/01/09 18:15:23;;;;;;;15.27;4.55;;;6.50;99.90;;;;;;6223982;23;20062;-76
2023/01/09 18:17:50;;;;;;;13.90;4.60;;;6.60;99.90;;;;;;6248111;23;20474;-77
2023/01/09 18:20:17;;;;;;;14.23;4.28;;;6.60;99.90;;;;;;6199352;23;20218;-76
2023/01/09 18:22:43;;;;;;;15.27;4.75;;;6.40;99.90;;;;;;6198797;23;20058;-76
2023/01/09 18:25:09;;;;;;;12.85;4.55;;;6.70;99.90;;;;;;6196998;23;20035;-76
2023/01/09 18:27:38;;;;;;;14.07;4.30;;;6.50;99.90;;;;;;6223572;23;20100;-76
2023/01/09 18:30:05;;;;;;;16.92;4.15;;;8.20;99.90;;;;;;6222774;23;20064;-77
2023/01/09 18:32:31;;;;;;;14.40;3.90;;;6.40;99.90;;;;;;6198799;23;20202;-76
2023/01/09 18:34:57;;;;;;;13.02;5.00;;;6.50;99.90;;;;;;6198601;23;20073;-75
2023/01/09 18:37:23;;;;;;;13.15;4.53;;;6.50;99.90;;;;;;6248589;23;20309;-76
2023/01/09 18:39:49;;;;;;;17.17;4.30;;;6.40;99.90;;;;;;6222738;23;20012;-76
2023/01/09 18:42:15;;;;;;;15.25;3.55;;;6.20;99.90;;;;;;6223512;23;20076;-75
2023/01/09 18:44:43;;;;;;;15.10;4.03;;;6.20;99.90;;;;;;6224142;23;20016;-76
2023/01/09 18:47:14;;;;;;;14.32;4.20;;;6.10;99.90;;;;;;6199480;23;20058;-76
2023/01/09 18:49:43;;;;;;;19.60;4.20;;;6.10;99.90;;;;;;6222746;23;20016;-77
2023/01/09 18:52:09;;;;;;;10.20;3.65;;;6.40;99.90;;;;;;6247732;23;20011;-76
2023/01/09 18:54:37;;;;;;;12.07;4.22;;;7.30;99.90;;;;;;6198814;23;20028;-78
2023/01/09 18:57:09;;;;;;;12.23;5.32;;;6.30;99.90;;;;;;6222679;23;20012;-76
2023/01/09 18:59:42;;;;;;;19.42;6.85;;;6.20;99.90;;;;;;6223567;23;20012;-76
2023/01/09 19:02:26;;;;;;;23.33;9.48;;;6.10;99.90;;;;;;6171018;23;20016;-76
2023/01/09 19:04:52;;;;;;;17.33;5.22;;;5.90;99.90;;;;;;6222334;23;20014;-77
2023/01/09 19:07:18;;;;;;;16.10;6.30;;;6.10;99.90;;;;;;6221961;23;20066;-76
2023/01/09 19:09:44;;;;;;;16.67;6.70;;;5.90;99.90;;;;;;6247557;23;20036;-76
2023/01/09 19:12:10;;;;;;;18.27;7.78;;;6.10;99.90;;;;;;6222245;23;20012;-77
2023/01/09 19:14:36;;;;;;;22.90;8.13;;;6.00;99.90;;;;;;6222182;23;20194;-77
2023/01/09 19:17:05;;;;;;;14.68;6.15;;;5.90;99.90;;;;;;6246885;23;20012;-76
2023/01/09 19:19:32;;;;;;;15.63;4.63;;;6.50;99.90;;;;;;6221077;23;20071;-76
2023/01/09 19:21:58;;;;;;;19.08;5.45;;;6.40;99.90;;;;;;6221380;23;20008;-76
2023/01/09 19:24:26;;;;;;;17.15;4.35;;;6.20;99.90;;;;;;6222076;23;20054;-76
2023/01/09 19:26:55;;;;;;;17.30;4.18;;;6.20;99.90;;;;;;6222862;23;20008;-77
2023/01/09 19:29:21;;;;;;;13.38;4.35;;;6.20;99.90;;;;;;6197248;23;20008;-76
2023/01/09 19:31:47;;;;;;;23.38;7.63;;;6.30;99.90;;;;;;6247008;23;20035;-77
2023/01/09 19:34:14;;;;;;;30.83;15.05;;;6.20;99.90;;;;;;6245144;23;20074;-76
2023/01/09 19:36:42;;;;;;;21.20;11.20;;;6.10;99.90;;;;;;6247131;23;20361;-77
2023/01/09 19:39:08;;;;;;;26.45;10.73;;;6.00;99.90;;;;;;6222668;23;20067;-76
2023/01/09 19:41:34;;;;;;;23.25;10.48;;;6.00;99.90;;;;;;6222441;23;20019;-78
2023/01/09 19:44:00;;;;;;;19.83;9.48;;;6.00;99.90;;;;;;6219897;23;20235;-78
2023/01/09 19:46:27;;;;;;;19.50;6.78;;;6.10;99.90;;;;;;6221947;23;20019;-76
2023/01/09 19:48:55;;;;;;;17.25;6.55;;;6.00;99.90;;;;;;6246812;23;20263;-77
2023/01/09 19:51:21;;;;;;;17.88;7.50;;;6.10;99.90;;;;;;6221872;23;20080;-77
2023/01/09 19:53:59;;;;;;;24.67;8.40;;;5.80;99.90;;;;;;6197361;23;20019;-77
2023/01/09 19:56:39;;;;;;;21.65;7.10;;;5.80;99.90;;;;;;6223798;23;20278;-77
2023/01/09 19:59:05;;;;;;;19.70;6.93;;;5.80;99.90;;;;;;6247516;23;20293;-79
2023/01/09 20:01:38;;;;;;;15.70;5.47;;;5.90;99.90;;;;;;6248142;23;20035;-76
2023/01/09 20:04:12;;;;;;;16.83;6.68;;;5.90;99.90;;;;;;6249619;23;20016;-76
2023/01/09 20:06:44;;;;;;;19.33;6.50;;;5.90;99.90;;;;;;6224733;23;20314;-76
2023/01/09 20:09:11;;;;;;;15.10;5.57;;;5.90;99.90;;;;;;6247283;23;20015;-76
2023/01/09 20:11:39;;;;;;;20.08;5.85;;;5.90;99.90;;;;;;6248587;23;20012;-76
2023/01/09 20:14:10;;;;;;;15.75;5.88;;;5.90;99.90;;;;;;6224312;23;20325;-76